createdAt,value
2022-10-17T00:00:17.799Z,4.40
2022-10-17T00:03:22.889Z,4.00
2022-10-17T00:06:30.522Z,4.53
2022-10-17T00:09:35.456Z,4.53
2022-10-17T00:12:40.635Z,4.30
2022-10-17T00:15:46.338Z,4.38
2022-10-17T00:18:51.233Z,4.75
2022-10-17T00:21:58.782Z,4.43
2022-10-17T00:25:03.832Z,5.00
2022-10-17T00:28:09.102Z,4.38
2022-10-17T00:31:14.154Z,4.35
2022-10-17T00:34:19.402Z,4.53
2022-10-17T00:37:27.164Z,4.45
2022-10-17T00:40:32.217Z,4.07
2022-10-17T00:43:52.158Z,4.28
2022-10-17T00:46:57.225Z,4.20
2022-10-17T00:53:30.629Z,4.30
2022-10-17T00:56:36.002Z,4.37
2022-10-17T00:59:42.862Z,4.43
2022-10-17T01:02:48.097Z,4.60
2022-10-17T01:05:55.146Z,3.70
2022-10-17T01:09:02.836Z,4.43
2022-10-17T01:12:10.664Z,4.70
2022-10-17T01:15:19.491Z,4.47
2022-10-17T01:18:29.468Z,4.60
2022-10-17T01:21:36.733Z,4.20
2022-10-17T01:24:59.093Z,4.57
2022-10-17T01:28:11.318Z,4.72
2022-10-17T01:31:19.831Z,4.47
2022-10-17T01:34:28.147Z,5.22
2022-10-17T01:37:35.385Z,4.28
2022-10-17T01:40:42.731Z,4.15
2022-10-17T01:43:51.742Z,4.50
2022-10-17T01:47:02.041Z,4.80
2022-10-17T01:50:09.892Z,4.45
2022-10-17T01:53:17.680Z,4.10
2022-10-17T01:56:22.885Z,4.77
2022-10-17T01:59:30.331Z,4.47
2022-10-17T02:02:39.623Z,5.03
2022-10-17T02:05:45.606Z,4.50
2022-10-17T02:08:51.833Z,4.50
2022-10-17T02:12:07.158Z,4.97
2022-10-17T02:15:42.901Z,4.32
2022-10-17T02:19:03.207Z,4.50
2022-10-17T02:22:34.120Z,4.93
2022-10-17T02:25:41.852Z,4.38
2022-10-17T02:28:50.430Z,4.45
2022-10-17T02:31:58.181Z,4.25
2022-10-17T02:35:06.801Z,4.10
2022-10-17T02:41:17.976Z,4.68
2022-10-17T02:44:23.521Z,4.47
2022-10-17T02:47:30.418Z,4.25
2022-10-17T02:50:42.466Z,4.03
2022-10-17T02:53:51.542Z,4.60
2022-10-17T02:57:00.682Z,4.00
2022-10-17T03:00:07.170Z,4.35
2022-10-17T03:03:22.002Z,4.95
2022-10-17T03:06:29.514Z,4.72
2022-10-17T03:09:34.561Z,4.40
2022-10-17T03:12:39.858Z,4.80
2022-10-17T03:15:45.217Z,4.18
2022-10-17T03:18:50.619Z,5.75
2022-10-17T03:21:58.614Z,4.53
2022-10-17T03:25:03.808Z,4.78
2022-10-17T03:28:09.855Z,4.53
2022-10-17T03:31:17.364Z,4.30
2022-10-17T03:34:23.745Z,4.43
2022-10-17T03:37:32.058Z,4.95
2022-10-17T03:40:37.615Z,3.85
2022-10-17T03:43:43.049Z,4.90
2022-10-17T03:46:48.026Z,4.25
2022-10-17T03:49:54.167Z,4.97
2022-10-17T03:53:02.530Z,4.85
2022-10-17T03:56:14.833Z,4.25
2022-10-17T03:59:21.324Z,4.43
2022-10-17T04:02:36.004Z,4.35
2022-10-17T04:05:42.002Z,4.80
2022-10-17T04:08:49.964Z,4.47
2022-10-17T04:12:00.470Z,4.47
2022-10-17T04:15:05.862Z,4.07
2022-10-17T04:18:11.115Z,4.82
2022-10-17T04:21:16.731Z,4.30
2022-10-17T04:24:26.083Z,4.30
2022-10-17T04:27:41.381Z,4.75
2022-10-17T04:30:48.975Z,4.45
2022-10-17T04:33:55.213Z,4.78
2022-10-17T04:37:00.675Z,4.22
2022-10-17T04:40:09.145Z,4.20
2022-10-17T04:46:19.276Z,4.20
2022-10-17T04:49:25.013Z,4.82
2022-10-17T04:52:33.330Z,4.50
2022-10-17T04:55:42.879Z,4.65
2022-10-17T04:58:48.484Z,5.20
2022-10-17T05:01:54.255Z,5.13
2022-10-17T05:04:59.532Z,4.65
2022-10-17T05:08:04.984Z,5.43
2022-10-17T05:11:20.302Z,4.88
2022-10-17T05:14:25.384Z,4.50
2022-10-17T05:17:30.526Z,5.20
2022-10-17T05:20:35.840Z,5.03
2022-10-17T05:23:40.986Z,5.13
2022-10-17T05:26:48.709Z,5.63
2022-10-17T05:29:54.072Z,5.13
2022-10-17T05:33:05.358Z,4.07
2022-10-17T05:36:10.942Z,5.18
2022-10-17T05:39:19.800Z,5.25
2022-10-17T05:42:29.491Z,5.57
2022-10-17T05:45:35.762Z,5.00
2022-10-17T05:48:40.858Z,5.05
2022-10-17T05:51:46.570Z,5.05
2022-10-17T05:54:52.950Z,5.72
2022-10-17T05:58:02.694Z,5.20
2022-10-17T06:01:13.324Z,5.38
2022-10-17T06:04:18.510Z,5.80
2022-10-17T06:07:23.683Z,4.70
2022-10-17T06:10:29.309Z,5.22
2022-10-17T06:13:37.775Z,5.43
2022-10-17T06:16:49.166Z,5.70
2022-10-17T06:19:54.466Z,4.82
2022-10-17T06:23:02.552Z,4.75
2022-10-17T06:26:26.620Z,5.22
2022-10-17T06:29:34.728Z,5.03
2022-10-17T06:32:39.813Z,5.53
2022-10-17T06:35:45.033Z,4.90
2022-10-17T06:38:50.543Z,5.50
2022-10-17T06:42:00.936Z,5.30
2022-10-17T06:45:44.164Z,5.30
2022-10-17T06:48:56.004Z,4.88
2022-10-17T06:52:27.063Z,6.13
2022-10-17T06:56:08.028Z,5.40
2022-10-17T06:59:35.988Z,5.63
2022-10-17T07:02:52.815Z,5.28
2022-10-17T07:05:58.905Z,5.15
2022-10-17T07:09:07.116Z,5.55
2022-10-17T07:12:14.471Z,5.47
2022-10-17T07:15:23.057Z,5.50
2022-10-17T07:18:30.797Z,4.88
2022-10-17T07:21:38.958Z,5.72
2022-10-17T07:24:46.042Z,5.30
2022-10-17T07:28:11.310Z,5.40
2022-10-17T07:31:18.106Z,6.43
2022-10-17T07:34:27.788Z,5.38
2022-10-17T07:37:33.663Z,5.72
2022-10-17T07:40:38.971Z,5.40
2022-10-17T07:43:44.819Z,5.57
2022-10-17T07:46:50.251Z,5.65
2022-10-17T07:49:59.179Z,6.70
2022-10-17T07:53:04.279Z,5.68
2022-10-17T07:56:10.985Z,5.72
2022-10-17T07:59:15.985Z,5.90
2022-10-17T08:02:24.374Z,6.22
2022-10-17T08:05:31.983Z,5.82
2022-10-17T08:08:37.065Z,6.17
2022-10-17T08:11:44.274Z,6.40
2022-10-17T08:14:49.160Z,6.00
2022-10-17T08:17:55.829Z,7.25
2022-10-17T08:21:06.444Z,7.05
2022-10-17T08:24:11.720Z,6.57
2022-10-17T08:27:21.839Z,7.03
2022-10-17T08:30:26.834Z,7.63
2022-10-17T08:33:32.271Z,6.45
2022-10-17T08:36:40.028Z,6.55
2022-10-17T08:39:45.472Z,7.27
2022-10-17T08:43:05.245Z,8.10
2022-10-17T08:46:10.804Z,7.38
2022-10-17T08:49:19.431Z,6.25
2022-10-17T08:52:30.629Z,6.53
2022-10-17T08:55:41.451Z,7.03
2022-10-17T08:58:49.970Z,7.20
2022-10-17T09:02:03.199Z,6.70
2022-10-17T09:05:21.317Z,6.82
2022-10-17T09:08:42.715Z,7.30
2022-10-17T09:11:53.285Z,7.28
2022-10-17T09:15:12.519Z,7.35
2022-10-17T09:18:22.034Z,8.15
2022-10-17T09:21:31.115Z,7.75
2022-10-17T09:24:42.158Z,8.00
2022-10-17T09:27:49.472Z,7.72
2022-10-17T09:30:58.980Z,8.10
2022-10-17T09:34:05.206Z,8.73
2022-10-17T09:37:14.468Z,7.38
2022-10-17T09:40:24.424Z,7.75
2022-10-17T09:43:29.802Z,8.32
2022-10-17T09:46:37.981Z,8.13
2022-10-17T09:49:44.084Z,7.68
2022-10-17T09:52:51.011Z,8.23
2022-10-17T09:55:59.895Z,8.23
2022-10-17T09:59:05.019Z,7.68
2022-10-17T10:02:20.419Z,9.38
2022-10-17T10:05:25.415Z,8.23
2022-10-17T10:08:31.607Z,7.60
2022-10-17T10:11:52.473Z,8.10
2022-10-17T10:14:58.129Z,8.70
2022-10-17T10:18:03.235Z,8.25
2022-10-17T10:21:10.372Z,9.55
2022-10-17T10:24:16.432Z,9.13
2022-10-17T10:27:24.655Z,8.40
2022-10-17T10:30:36.160Z,7.60
2022-10-17T10:33:49.464Z,8.45
2022-10-17T10:36:58.350Z,7.45
2022-10-17T10:40:05.358Z,7.93
2022-10-17T10:43:23.385Z,8.00
2022-10-17T10:46:30.170Z,8.18
2022-10-17T10:49:35.837Z,8.90
2022-10-17T10:52:44.693Z,8.00
2022-10-17T10:55:52.130Z,7.93
2022-10-17T10:59:03.553Z,8.32
2022-10-17T11:02:14.310Z,8.15
2022-10-17T11:05:21.030Z,8.50
2022-10-17T11:08:28.723Z,8.00
2022-10-17T11:11:39.352Z,8.43
2022-10-17T11:14:50.031Z,7.95
2022-10-17T11:17:59.248Z,8.73
2022-10-17T11:21:09.087Z,8.35
2022-10-17T11:24:17.509Z,8.50
2022-10-17T11:27:22.566Z,8.50
2022-10-17T11:30:32.214Z,9.10
2022-10-17T11:33:40.911Z,10.30
2022-10-17T11:36:47.240Z,8.77
2022-10-17T11:39:54.921Z,9.95
2022-10-17T11:43:02.555Z,8.57
2022-10-17T11:46:15.678Z,7.63
2022-10-17T11:49:23.667Z,9.85
2022-10-17T11:56:01.165Z,9.23
2022-10-17T11:59:11.828Z,8.90
2022-10-17T12:02:24.622Z,8.60
2022-10-17T12:05:32.944Z,10.48
2022-10-17T12:08:40.607Z,8.45
2022-10-17T12:11:54.286Z,9.50
2022-10-17T12:15:17.229Z,9.65
2022-10-17T12:18:27.532Z,9.35
2022-10-17T12:21:52.783Z,8.73
2022-10-17T12:24:59.393Z,9.63
2022-10-17T12:28:14.390Z,9.57
2022-10-17T12:31:28.543Z,9.82
2022-10-17T12:34:41.128Z,10.48
2022-10-17T12:38:10.251Z,9.93
2022-10-17T12:41:15.484Z,10.85
2022-10-17T12:44:35.248Z,10.38
2022-10-17T12:47:41.816Z,9.90
2022-10-17T12:51:30.733Z,10.73
2022-10-17T12:54:37.988Z,12.25
2022-10-17T12:57:57.032Z,10.57
2022-10-17T13:01:22.999Z,10.50
2022-10-17T13:04:27.913Z,11.38
2022-10-17T13:07:32.963Z,10.38
2022-10-17T13:10:43.620Z,10.32
2022-10-17T13:13:50.573Z,12.23
2022-10-17T13:16:56.683Z,10.77
2022-10-17T13:20:01.954Z,10.30
2022-10-17T13:23:08.166Z,11.43
2022-10-17T13:26:20.879Z,10.82
2022-10-17T13:29:26.218Z,11.45
2022-10-17T13:32:38.284Z,11.45
2022-10-17T13:36:00.840Z,11.00
2022-10-17T13:39:12.282Z,11.13
2022-10-17T13:42:25.841Z,11.57
2022-10-17T13:45:32.581Z,11.48
2022-10-17T13:48:39.622Z,12.25
2022-10-17T13:51:46.590Z,12.10
2022-10-17T13:54:54.189Z,12.13
2022-10-17T13:58:11.894Z,11.80
2022-10-17T14:01:17.589Z,11.35
2022-10-17T14:04:22.858Z,11.00
2022-10-17T14:07:46.358Z,10.57
2022-10-17T14:10:56.760Z,11.75
2022-10-17T14:14:05.081Z,11.05
2022-10-17T14:17:16.493Z,11.48
2022-10-17T14:23:47.563Z,10.85
2022-10-17T14:26:53.052Z,11.15
2022-10-17T14:30:03.221Z,11.95
2022-10-17T14:33:11.137Z,11.57
2022-10-17T14:36:16.564Z,11.05
2022-10-17T14:39:22.383Z,10.80
2022-10-17T14:42:27.502Z,11.98
2022-10-17T14:45:36.534Z,11.27
2022-10-17T14:48:41.467Z,10.63
2022-10-17T14:52:07.532Z,11.20
2022-10-17T14:55:23.798Z,11.98
2022-10-17T14:58:29.875Z,12.73
2022-10-17T15:01:38.283Z,11.75
2022-10-17T15:04:43.334Z,12.23
2022-10-17T15:07:48.445Z,12.70
2022-10-17T15:10:54.031Z,12.05
2022-10-17T15:13:59.210Z,12.10
2022-10-17T15:17:08.442Z,13.27
2022-10-17T15:20:16.502Z,11.02
2022-10-17T15:23:21.590Z,12.35
2022-10-17T15:26:27.701Z,12.07
2022-10-17T15:29:32.822Z,12.77
2022-10-17T15:32:40.352Z,11.73
2022-10-17T15:35:45.583Z,11.13
2022-10-17T15:38:50.774Z,10.63
2022-10-17T15:41:55.710Z,11.60
2022-10-17T15:45:01.503Z,11.32
2022-10-17T15:48:13.600Z,12.13
2022-10-17T15:51:19.088Z,11.68
2022-10-17T15:54:24.157Z,11.63
2022-10-17T15:57:31.807Z,11.43
2022-10-17T16:00:37.115Z,11.93
2022-10-17T16:03:47.615Z,11.35
2022-10-17T16:06:52.964Z,10.93
2022-10-17T16:09:57.907Z,10.65
2022-10-17T16:13:02.984Z,10.27
2022-10-17T16:16:08.912Z,10.93
2022-10-17T16:19:16.618Z,10.43
2022-10-17T16:22:23.816Z,10.55
2022-10-17T16:25:29.547Z,10.95
2022-10-17T16:28:34.765Z,11.48
2022-10-17T16:31:42.577Z,12.48
2022-10-17T16:34:50.274Z,11.20
2022-10-17T16:37:56.801Z,10.67
2022-10-17T16:41:01.734Z,10.85
2022-10-17T16:44:07.581Z,11.57
2022-10-17T16:47:12.858Z,11.50
2022-10-17T16:50:20.871Z,10.85
2022-10-17T16:53:25.921Z,11.35
2022-10-17T16:56:33.069Z,12.02
2022-10-17T16:59:38.230Z,10.60
2022-10-17T17:02:43.355Z,11.77
2022-10-17T17:05:55.775Z,12.30
2022-10-17T17:09:00.930Z,11.20
2022-10-17T17:12:06.304Z,11.15
2022-10-17T17:15:11.772Z,11.15
2022-10-17T17:18:17.122Z,11.63
2022-10-17T17:21:24.975Z,12.00
2022-10-17T17:24:30.389Z,10.83
2022-10-17T17:27:35.482Z,12.38
2022-10-17T17:30:40.542Z,10.65
2022-10-17T17:33:46.913Z,11.07
2022-10-17T17:36:56.182Z,10.35
2022-10-17T17:40:01.308Z,11.48
2022-10-17T17:43:08.074Z,11.10
2022-10-17T17:46:13.034Z,11.20
2022-10-17T17:49:18.145Z,10.68
2022-10-17T17:52:25.786Z,10.32
2022-10-17T17:55:30.717Z,13.53
2022-10-17T17:58:36.063Z,11.00
2022-10-17T18:01:41.061Z,10.45
2022-10-17T18:04:46.225Z,12.40
2022-10-17T18:07:54.049Z,10.20
2022-10-17T18:10:59.028Z,10.97
2022-10-17T18:14:04.809Z,10.90
2022-10-17T18:17:10.190Z,11.57
2022-10-17T18:20:15.532Z,11.90
2022-10-17T18:23:23.279Z,10.63
2022-10-17T18:26:28.467Z,11.43
2022-10-17T18:29:33.622Z,12.18
2022-10-17T18:32:38.680Z,12.02
2022-10-17T18:35:43.789Z,12.15
2022-10-17T18:38:51.427Z,11.57
2022-10-17T18:41:56.729Z,11.43
2022-10-17T18:45:03.573Z,10.98
2022-10-17T18:48:10.190Z,11.55
2022-10-17T18:51:15.916Z,11.60
2022-10-17T18:54:24.647Z,10.52
2022-10-17T18:57:29.957Z,11.38
2022-10-17T19:00:35.193Z,10.68
2022-10-17T19:03:40.466Z,10.20
2022-10-17T19:06:45.957Z,11.23
2022-10-17T19:09:53.801Z,10.93
2022-10-17T19:12:58.766Z,10.85
2022-10-17T19:16:07.514Z,11.57
2022-10-17T19:22:17.153Z,11.85
2022-10-17T19:25:24.841Z,11.25
2022-10-17T19:28:29.916Z,12.97
2022-10-17T19:31:36.226Z,11.27
2022-10-17T19:34:41.399Z,12.00
2022-10-17T19:37:46.521Z,11.30
2022-10-17T19:40:54.625Z,13.05
2022-10-17T19:43:59.946Z,12.10
2022-10-17T19:47:04.924Z,12.85
2022-10-17T19:50:10.782Z,12.15
2022-10-17T19:53:16.072Z,12.27
2022-10-17T19:56:24.493Z,12.68
2022-10-17T19:59:29.698Z,12.05
2022-10-17T20:02:34.866Z,12.05
2022-10-17T20:05:40.633Z,12.63
2022-10-17T20:08:46.059Z,13.55
2022-10-17T20:11:54.898Z,13.43
2022-10-17T20:15:00.000Z,12.45
2022-10-17T20:18:05.182Z,13.02
2022-10-17T20:21:11.018Z,13.00
2022-10-17T20:24:17.201Z,12.18
2022-10-17T20:27:27.684Z,11.82
2022-10-17T20:30:33.092Z,13.70
2022-10-17T20:33:38.353Z,12.60
2022-10-17T20:36:43.293Z,13.63
2022-10-17T20:39:55.810Z,13.02
2022-10-17T20:43:13.852Z,12.63
2022-10-17T20:46:29.764Z,12.57
2022-10-17T20:49:40.986Z,12.85
2022-10-17T20:52:45.983Z,12.40
2022-10-17T20:55:51.032Z,12.25
2022-10-17T20:58:59.899Z,12.77
2022-10-17T21:02:05.279Z,12.88
2022-10-17T21:05:10.845Z,13.38
2022-10-17T21:08:15.803Z,12.48
2022-10-17T21:11:22.551Z,12.25
2022-10-17T21:14:30.358Z,13.57
2022-10-17T21:17:35.539Z,13.20
2022-10-17T21:20:40.458Z,13.27
2022-10-17T21:23:46.321Z,12.57
2022-10-17T21:26:55.778Z,12.80
2022-10-17T21:30:03.600Z,12.00
2022-10-17T21:33:08.643Z,12.50
2022-10-17T21:36:14.005Z,13.35
2022-10-17T21:39:19.007Z,11.35
2022-10-17T21:42:24.055Z,11.55
2022-10-17T21:45:31.926Z,11.50
2022-10-17T21:48:37.046Z,10.73
2022-10-17T21:51:42.070Z,10.98
2022-10-17T21:54:47.122Z,10.93
2022-10-17T21:57:52.827Z,10.68
2022-10-17T22:01:05.185Z,11.45
2022-10-17T22:04:13.474Z,11.00
2022-10-17T22:07:18.389Z,10.95
2022-10-17T22:10:23.306Z,10.80
2022-10-17T22:13:28.369Z,10.98
2022-10-17T22:16:36.483Z,10.75
2022-10-17T22:19:41.470Z,10.95
2022-10-17T22:22:46.446Z,9.88
2022-10-17T22:25:56.089Z,11.02
2022-10-17T22:29:01.519Z,9.57
2022-10-17T22:32:09.112Z,10.07
2022-10-17T22:35:14.155Z,9.77
2022-10-17T22:38:19.413Z,9.52
2022-10-17T22:41:24.771Z,9.02
2022-10-17T22:44:29.805Z,9.52
2022-10-17T22:47:37.435Z,9.63
2022-10-17T22:50:43.762Z,9.35
2022-10-17T22:53:48.733Z,8.93
2022-10-17T22:56:53.825Z,8.90
2022-10-17T22:59:58.911Z,8.50
2022-10-17T23:03:06.435Z,9.05
2022-10-17T23:06:11.502Z,9.30
2022-10-17T23:09:17.086Z,8.13
2022-10-17T23:12:22.068Z,8.80
2022-10-17T23:15:27.330Z,8.20
2022-10-17T23:18:34.964Z,9.43
2022-10-17T23:21:40.051Z,8.80
2022-10-17T23:24:45.145Z,8.43
2022-10-17T23:27:50.119Z,8.43
2022-10-17T23:30:55.064Z,7.78
2022-10-17T23:34:02.783Z,7.28
2022-10-17T23:37:07.847Z,8.57
2022-10-17T23:40:13.935Z,9.18
2022-10-17T23:43:19.181Z,8.55
2022-10-17T23:46:24.357Z,7.57
2022-10-17T23:49:32.545Z,7.20
2022-10-17T23:52:37.442Z,8.07
2022-10-17T23:55:42.679Z,8.07
2022-10-17T23:58:47.594Z,7.90
